createdAt,value
2022-08-19T00:01:57.480Z,96322.59
2022-08-19T00:04:29.378Z,96325.47
2022-08-19T00:06:57.559Z,96321.22
2022-08-19T00:09:25.996Z,96319.88
2022-08-19T00:11:56.284Z,96313.91
2022-08-19T00:14:49.396Z,96318.50
2022-08-19T00:17:18.718Z,96319.47
2022-08-19T00:19:46.556Z,96322.59
2022-08-19T00:22:14.859Z,96323.03
2022-08-19T00:24:44.543Z,96326.00
2022-08-19T00:27:26.382Z,96330.16
2022-08-19T00:29:54.953Z,96325.47
2022-08-19T00:32:25.486Z,96327.38
2022-08-19T00:34:55.695Z,96324.78
2022-08-19T00:37:26.823Z,96322.16
2022-08-19T00:39:56.923Z,96327.75
2022-08-19T00:42:29.278Z,96323.91
2022-08-19T00:44:57.206Z,96323.78
2022-08-19T00:47:26.417Z,96328.28
2022-08-19T00:49:59.723Z,96329.94
2022-08-19T00:52:30.978Z,96333.56
2022-08-19T00:54:59.916Z,96329.63
2022-08-19T00:57:31.232Z,96321.59
2022-08-19T01:00:03.094Z,96324.91
2022-08-19T01:02:34.522Z,96324.94
2022-08-19T01:05:06.826Z,96324.28
2022-08-19T01:07:38.399Z,96322.19
2022-08-19T01:10:09.585Z,96319.25
2022-08-19T01:12:37.649Z,96320.22
2022-08-19T01:15:06.516Z,96314.53
2022-08-19T01:17:38.533Z,96319.56
2022-08-19T01:20:08.558Z,96325.53
2022-08-19T01:22:44.233Z,96335.25
2022-08-19T01:25:15.115Z,96327.63
2022-08-19T01:27:45.665Z,96327.22
2022-08-19T01:30:17.015Z,96329.41
2022-08-19T01:32:45.644Z,96331.38
2022-08-19T01:35:16.691Z,96324.13
2022-08-19T01:37:49.277Z,96322.75
2022-08-19T01:40:18.094Z,96331.38
2022-08-19T01:42:46.068Z,96331.63
2022-08-19T01:45:14.096Z,96333.03
2022-08-19T01:47:42.274Z,96333.03
2022-08-19T01:50:13.232Z,96330.94
2022-08-19T01:52:42.855Z,96341.94
2022-08-19T01:55:15.535Z,96357.78
2022-08-19T01:57:48.255Z,96363.06
2022-08-19T02:00:18.499Z,96358.09
2022-08-19T02:02:46.870Z,96358.91
2022-08-19T02:05:14.829Z,96371.81
2022-08-19T02:07:42.989Z,96365.09
2022-08-19T02:10:16.731Z,96367.78
2022-08-19T02:12:45.020Z,96366.81
2022-08-19T02:15:13.770Z,96363.75
2022-08-19T02:17:42.632Z,96367.09
2022-08-19T02:20:12.140Z,96379.72
2022-08-19T02:22:42.394Z,96379.16
2022-08-19T02:25:13.086Z,96375.84
2022-08-19T02:27:41.632Z,96382.16
2022-08-19T02:30:14.440Z,96384.28
2022-08-19T02:32:45.039Z,96373.34
2022-08-19T02:35:14.488Z,96378.31
2022-08-19T02:38:00.021Z,96384.03
2022-08-19T02:40:30.093Z,96384.81
2022-08-19T02:42:58.583Z,96376.88
2022-08-19T02:45:26.468Z,96381.28
2022-08-19T02:47:54.398Z,96383.41
2022-08-19T02:50:22.644Z,96379.28
2022-08-19T02:52:50.490Z,96384.69
2022-08-19T02:55:18.791Z,96384.19
2022-08-19T02:57:47.985Z,96385.31
2022-08-19T03:00:16.904Z,96392.00
2022-08-19T03:02:44.823Z,96396.47
2022-08-19T03:05:12.747Z,96402.59
2022-08-19T03:07:40.586Z,96405.53
2022-08-19T03:10:10.131Z,96406.91
2022-08-19T03:12:39.039Z,96417.88
2022-08-19T03:15:09.975Z,96420.00
2022-08-19T03:17:38.062Z,96418.63
2022-08-19T03:20:06.969Z,96420.97
2022-08-19T03:22:43.939Z,96425.59
2022-08-19T03:25:13.002Z,96428.50
2022-08-19T03:27:40.854Z,96421.00
2022-08-19T03:30:12.451Z,96416.22
2022-08-19T03:32:45.325Z,96424.03
2022-08-19T03:35:15.354Z,96432.66
2022-08-19T03:37:43.192Z,96433.81
2022-08-19T03:40:16.503Z,96429.34
2022-08-19T03:42:49.251Z,96425.44
2022-08-19T03:45:19.338Z,96431.44
2022-08-19T03:47:47.514Z,96420.16
2022-08-19T03:50:15.348Z,96417.66
2022-08-19T03:52:45.316Z,96408.19
2022-08-19T03:55:15.086Z,96407.06
2022-08-19T03:57:43.009Z,96413.22
2022-08-19T04:00:13.384Z,96410.13
2022-08-19T04:02:56.427Z,96412.09
2022-08-19T04:05:29.458Z,96419.03
2022-08-19T04:08:00.158Z,96415.00
2022-08-19T04:10:29.144Z,96418.50
2022-08-19T04:12:56.999Z,96423.78
2022-08-19T04:15:24.933Z,96419.47
2022-08-19T04:17:54.168Z,96410.41
2022-08-19T04:20:22.091Z,96408.03
2022-08-19T04:22:50.213Z,96398.44
2022-08-19T04:25:18.319Z,96396.31
2022-08-19T04:27:47.357Z,96399.47
2022-08-19T04:30:16.491Z,96400.06
2022-08-19T04:32:45.661Z,96399.47
2022-08-19T04:35:17.689Z,96386.47
2022-08-19T04:37:46.895Z,96388.25
2022-08-19T04:40:32.857Z,96397.94
2022-08-19T04:43:02.222Z,96390.13
2022-08-19T04:45:39.541Z,96389.53
2022-08-19T04:48:26.473Z,96390.19
2022-08-19T04:50:59.428Z,96388.97
2022-08-19T04:53:29.633Z,96393.59
2022-08-19T04:56:08.984Z,96394.97
2022-08-19T04:58:38.248Z,96399.47
2022-08-19T05:01:06.613Z,96407.00
2022-08-19T05:03:35.131Z,96404.75
2022-08-19T05:06:08.560Z,96409.97
2022-08-19T05:08:37.325Z,96407.88
2022-08-19T05:11:14.157Z,96415.19
2022-08-19T05:13:43.276Z,96403.41
2022-08-19T05:16:12.995Z,96413.13
2022-08-19T05:18:58.553Z,96417.13
2022-08-19T05:21:46.355Z,96415.69
2022-08-19T05:24:15.442Z,96433.97
2022-08-19T05:26:47.307Z,96454.34
2022-08-19T05:29:17.330Z,96456.13
2022-08-19T05:31:46.075Z,96468.53
2022-08-19T05:34:18.274Z,96453.19
2022-08-19T05:36:50.996Z,96451.22
2022-08-19T05:39:22.210Z,96453.06
2022-08-19T05:41:53.781Z,96474.06
2022-08-19T05:44:22.703Z,96469.94
2022-08-19T05:46:53.935Z,96488.75
2022-08-19T05:49:23.767Z,96494.47
2022-08-19T05:51:53.793Z,96498.47
2022-08-19T05:54:23.932Z,96500.72
2022-08-19T05:56:52.780Z,96507.28
2022-08-19T05:59:22.513Z,96508.97
2022-08-19T06:01:55.445Z,96518.00
2022-08-19T06:04:23.919Z,96523.59
2022-08-19T06:06:55.037Z,96525.81
2022-08-19T06:09:24.306Z,96525.38
2022-08-19T06:11:56.054Z,96530.13
2022-08-19T06:14:28.087Z,96531.22
2022-08-19T06:16:56.680Z,96537.09
2022-08-19T06:19:26.301Z,96526.31
2022-08-19T06:21:55.548Z,96537.56
2022-08-19T06:24:25.799Z,96531.84
2022-08-19T06:26:59.190Z,96531.59
2022-08-19T06:29:32.300Z,96528.94
2022-08-19T06:32:04.104Z,96527.09
2022-08-19T06:34:35.943Z,96535.19
2022-08-19T06:37:06.777Z,96528.31
2022-08-19T06:39:37.018Z,96530.63
2022-08-19T06:42:10.290Z,96536.13
2022-08-19T06:44:43.319Z,96530.28
2022-08-19T06:47:23.850Z,96540.34
2022-08-19T06:50:01.075Z,96553.44
2022-08-19T06:52:34.332Z,96561.72
2022-08-19T06:55:06.179Z,96559.53
2022-08-19T06:57:35.564Z,96568.56
2022-08-19T07:00:04.554Z,96564.16
2022-08-19T07:02:32.631Z,96575.09
2022-08-19T07:05:03.555Z,96564.63
2022-08-19T07:07:36.229Z,96570.41
2022-08-19T07:10:07.809Z,96580.06
2022-08-19T07:12:38.028Z,96572.47
2022-08-19T07:15:09.838Z,96582.41
2022-08-19T07:17:40.340Z,96593.50
2022-08-19T07:20:11.205Z,96590.63
2022-08-19T07:22:41.196Z,96603.19
2022-08-19T07:25:10.367Z,96602.75
2022-08-19T07:27:46.169Z,96611.50
2022-08-19T07:30:14.884Z,96612.06
2022-08-19T07:32:44.139Z,96612.69
2022-08-19T07:35:13.020Z,96615.03
2022-08-19T07:37:45.350Z,96606.38
2022-08-19T07:40:14.934Z,96624.78
2022-08-19T07:42:43.793Z,96630.03
2022-08-19T07:45:12.220Z,96628.34
2022-08-19T07:47:47.521Z,96625.97
2022-08-19T07:50:21.392Z,96631.00
2022-08-19T07:52:52.826Z,96632.13
2022-08-19T07:55:40.415Z,96636.56
2022-08-19T07:58:11.795Z,96630.94
2022-08-19T08:00:40.095Z,96628.88
2022-08-19T08:03:09.560Z,96620.38
2022-08-19T08:05:55.158Z,96620.63
2022-08-19T08:08:43.953Z,96628.22
2022-08-19T08:11:13.439Z,96636.75
2022-08-19T08:13:43.767Z,96642.72
2022-08-19T08:16:13.962Z,96645.63
2022-08-19T08:18:50.573Z,96641.84
2022-08-19T08:21:21.147Z,96637.66
2022-08-19T08:23:53.131Z,96635.16
2022-08-19T08:26:22.440Z,96637.91
2022-08-19T08:28:50.932Z,96635.69
2022-08-19T08:31:45.351Z,96638.66
2022-08-19T08:34:15.160Z,96632.66
2022-08-19T08:36:46.796Z,96635.44
2022-08-19T08:39:19.605Z,96642.03
2022-08-19T08:41:55.216Z,96644.94
2022-08-19T08:44:29.911Z,96647.19
2022-08-19T08:47:02.827Z,96655.69
2022-08-19T08:49:35.985Z,96652.75
2022-08-19T08:52:08.127Z,96652.19
2022-08-19T08:54:48.817Z,96664.41
2022-08-19T08:57:30.563Z,96659.59
2022-08-19T09:00:15.865Z,96648.19
2022-08-19T09:02:44.283Z,96641.94
2022-08-19T09:05:16.668Z,96634.94
2022-08-19T09:07:57.763Z,96636.22
2022-08-19T09:10:33.975Z,96634.13
2022-08-19T09:13:12.652Z,96624.81
2022-08-19T09:15:45.546Z,96619.56
2022-08-19T09:18:19.529Z,96613.94
2022-08-19T09:20:49.304Z,96604.97
2022-08-19T09:23:18.008Z,96618.59
2022-08-19T09:25:56.534Z,96613.63
2022-08-19T09:28:27.464Z,96614.03
2022-08-19T09:30:55.451Z,96626.94
2022-08-19T09:33:24.185Z,96631.88
2022-08-19T09:35:53.754Z,96644.50
2022-08-19T09:38:22.415Z,96645.38
2022-08-19T09:40:51.043Z,96658.69
2022-08-19T09:43:33.737Z,96667.59
2022-08-19T09:46:11.200Z,96658.47
2022-08-19T09:48:39.902Z,96662.19
2022-08-19T09:51:11.901Z,96675.66
2022-08-19T09:53:40.823Z,96672.91
2022-08-19T09:56:09.410Z,96678.81
2022-08-19T09:58:39.308Z,96686.00
2022-08-19T10:01:09.342Z,96692.19
2022-08-19T10:03:38.353Z,96695.44
2022-08-19T10:06:15.214Z,96706.44
2022-08-19T10:08:50.447Z,96697.50
2022-08-19T10:11:28.692Z,96696.63
2022-08-19T10:14:07.462Z,96701.59
2022-08-19T10:16:39.578Z,96707.44
2022-08-19T10:19:08.817Z,96693.69
2022-08-19T10:21:38.073Z,96686.25
2022-08-19T10:24:09.492Z,96689.25
2022-08-19T10:26:42.604Z,96704.34
2022-08-19T10:29:12.778Z,96699.13
2022-08-19T10:32:00.858Z,96702.56
2022-08-19T10:34:31.026Z,96698.31
2022-08-19T10:37:02.267Z,96707.28
2022-08-19T10:39:32.100Z,96716.09
2022-08-19T10:42:11.546Z,96714.78
2022-08-19T10:44:41.425Z,96715.53
2022-08-19T10:47:17.392Z,96722.59
2022-08-19T10:50:11.777Z,96718.91
2022-08-19T10:52:50.099Z,96728.38
2022-08-19T10:55:39.243Z,96737.22
2022-08-19T10:58:14.199Z,96730.19
2022-08-19T11:00:44.836Z,96740.84
2022-08-19T11:03:13.133Z,96732.63
2022-08-19T11:05:41.635Z,96745.59
2022-08-19T11:08:22.967Z,96750.22
2022-08-19T11:10:52.528Z,96751.59
2022-08-19T11:13:20.421Z,96758.47
2022-08-19T11:15:49.766Z,96760.38
2022-08-19T11:18:18.285Z,96748.25
2022-08-19T11:20:46.330Z,96751.91
2022-08-19T11:23:14.239Z,96745.75
2022-08-19T11:25:42.693Z,96745.81
2022-08-19T11:28:10.594Z,96744.09
2022-08-19T11:30:39.313Z,96730.47
2022-08-19T11:33:12.181Z,96729.22
2022-08-19T11:35:41.995Z,96719.69
2022-08-19T11:38:10.013Z,96734.19
2022-08-19T11:40:38.219Z,96716.03
2022-08-19T11:43:06.129Z,96713.75
2022-08-19T11:45:34.190Z,96716.34
2022-08-19T11:48:02.835Z,96715.88
2022-08-19T11:50:32.069Z,96714.81
2022-08-19T11:53:00.206Z,96724.25
2022-08-19T11:55:28.247Z,96720.22
2022-08-19T11:57:56.276Z,96725.53
2022-08-19T12:00:33.802Z,96728.34
2022-08-19T12:03:01.865Z,96716.25
2022-08-19T12:05:29.929Z,96714.94
2022-08-19T12:08:04.605Z,96710.13
2022-08-19T12:10:32.687Z,96715.59
2022-08-19T12:13:01.605Z,96713.03
2022-08-19T12:15:45.016Z,96704.53
2022-08-19T12:18:14.861Z,96702.13
2022-08-19T12:20:44.743Z,96703.38
2022-08-19T12:23:14.152Z,96703.34
2022-08-19T12:25:49.424Z,96697.69
2022-08-19T12:28:17.508Z,96697.25
2022-08-19T12:31:12.996Z,96702.03
2022-08-19T12:33:43.642Z,96705.00
2022-08-19T12:36:15.107Z,96704.66
2022-08-19T12:38:45.070Z,96705.66
2022-08-19T12:41:15.392Z,96713.00
2022-08-19T12:43:43.398Z,96711.09
2022-08-19T12:46:17.465Z,96696.75
2022-08-19T12:48:47.774Z,96694.69
2022-08-19T12:51:21.475Z,96697.84
2022-08-19T12:53:50.838Z,96693.13
2022-08-19T12:56:23.059Z,96703.69
2022-08-19T12:58:53.108Z,96693.34
2022-08-19T13:01:22.684Z,96690.03
2022-08-19T13:03:53.267Z,96687.97
2022-08-19T13:06:22.352Z,96683.22
2022-08-19T13:08:52.002Z,96692.63
2022-08-19T13:11:25.348Z,96676.22
2022-08-19T13:13:56.242Z,96665.59
2022-08-19T13:16:24.258Z,96669.00
2022-08-19T13:18:53.085Z,96669.56
2022-08-19T13:21:23.167Z,96674.09
2022-08-19T13:23:53.071Z,96669.38
2022-08-19T13:26:21.300Z,96684.53
2022-08-19T13:29:07.888Z,96684.13
2022-08-19T13:31:55.471Z,96683.59
2022-08-19T13:34:30.948Z,96672.56
2022-08-19T13:36:59.988Z,96679.66
2022-08-19T13:39:31.041Z,96682.41
2022-08-19T13:42:01.278Z,96680.72
2022-08-19T13:44:31.307Z,96685.34
2022-08-19T13:47:06.929Z,96679.75
2022-08-19T13:49:37.238Z,96687.53
2022-08-19T13:52:06.544Z,96691.41
2022-08-19T13:54:35.939Z,96689.53
2022-08-19T13:57:03.891Z,96698.09
2022-08-19T13:59:31.892Z,96699.84
2022-08-19T14:02:00.548Z,96702.34
2022-08-19T14:08:28.897Z,96699.41
2022-08-19T14:10:58.267Z,96695.28
2022-08-19T14:13:26.697Z,96684.69
2022-08-19T14:15:54.589Z,96675.09
2022-08-19T14:18:22.783Z,96681.25
2022-08-19T14:20:54.825Z,96675.03
2022-08-19T14:23:23.334Z,96659.28
2022-08-19T14:25:51.748Z,96658.56
2022-08-19T14:28:20.923Z,96654.97
2022-08-19T14:30:55.212Z,96660.88
2022-08-19T14:33:28.413Z,96655.19
2022-08-19T14:35:59.884Z,96659.22
2022-08-19T14:38:32.468Z,96664.97
2022-08-19T14:41:12.358Z,96669.78
2022-08-19T14:44:06.147Z,96658.06
2022-08-19T14:46:35.087Z,96662.66
2022-08-19T14:49:09.315Z,96660.75
2022-08-19T14:51:37.701Z,96675.16
2022-08-19T14:54:05.756Z,96676.13
2022-08-19T14:56:33.791Z,96673.59
2022-08-19T14:59:03.153Z,96676.09
2022-08-19T15:01:31.208Z,96674.84
2022-08-19T15:03:59.154Z,96683.25
2022-08-19T15:06:27.902Z,96676.53
2022-08-19T15:08:57.768Z,96683.44
2022-08-19T15:11:30.171Z,96682.31
2022-08-19T15:13:58.650Z,96686.38
2022-08-19T15:16:28.776Z,96675.66
2022-08-19T15:18:58.796Z,96667.09
2022-08-19T15:21:27.600Z,96674.59
2022-08-19T15:23:56.483Z,96679.16
2022-08-19T15:26:25.720Z,96675.22
2022-08-19T15:28:53.584Z,96661.47
2022-08-19T15:31:28.053Z,96664.47
2022-08-19T15:33:59.410Z,96666.16
2022-08-19T15:36:29.285Z,96666.41
2022-08-19T15:38:57.760Z,96662.44
2022-08-19T15:41:29.093Z,96653.78
2022-08-19T15:43:59.813Z,96652.13
2022-08-19T15:46:30.503Z,96661.25
2022-08-19T15:49:00.810Z,96669.09
2022-08-19T15:51:31.344Z,96666.19
2022-08-19T15:54:00.226Z,96665.50
2022-08-19T15:56:58.463Z,96664.47
2022-08-19T15:59:47.147Z,96663.47
2022-08-19T16:02:37.173Z,96644.38
2022-08-19T16:05:26.837Z,96642.81
2022-08-19T16:07:55.413Z,96642.00
2022-08-19T16:10:26.448Z,96651.81
2022-08-19T16:12:56.413Z,96647.13
2022-08-19T16:15:24.735Z,96641.88
2022-08-19T16:17:56.351Z,96642.78
2022-08-19T16:20:28.093Z,96650.94
2022-08-19T16:22:58.242Z,96661.81
2022-08-19T16:25:29.096Z,96657.81
2022-08-19T16:28:07.977Z,96666.31
2022-08-19T16:30:38.562Z,96654.75
2022-08-19T16:33:08.140Z,96659.88
2022-08-19T16:35:38.357Z,96661.16
2022-08-19T16:38:07.088Z,96658.50
2022-08-19T16:40:38.157Z,96650.28
2022-08-19T16:43:08.476Z,96635.25
2022-08-19T16:45:36.491Z,96641.81
2022-08-19T16:48:04.905Z,96646.88
2022-08-19T16:50:48.759Z,96655.66
2022-08-19T16:53:21.352Z,96657.19
2022-08-19T16:55:50.816Z,96648.31
2022-08-19T16:58:19.299Z,96651.88
2022-08-19T17:00:48.510Z,96661.91
2022-08-19T17:03:17.896Z,96662.66
2022-08-19T17:05:47.409Z,96673.00
2022-08-19T17:08:16.889Z,96669.31
2022-08-19T17:11:07.890Z,96665.97
2022-08-19T17:13:35.489Z,96656.31
2022-08-19T17:16:03.635Z,96647.03
2022-08-19T17:18:32.754Z,96648.75
2022-08-19T17:21:01.535Z,96636.44
2022-08-19T17:23:42.853Z,96658.25
2022-08-19T17:26:18.031Z,96659.03
2022-08-19T17:28:49.735Z,96656.50
2022-08-19T17:31:19.456Z,96667.03
2022-08-19T17:33:49.000Z,96668.91
2022-08-19T17:36:18.322Z,96670.66
2022-08-19T17:38:46.847Z,96672.25
2022-08-19T17:41:16.281Z,96684.28
2022-08-19T17:43:45.295Z,96678.13
2022-08-19T17:46:17.925Z,96668.78
2022-08-19T17:48:51.751Z,96680.47
2022-08-19T17:51:23.402Z,96700.00
2022-08-19T17:53:52.444Z,96709.59
2022-08-19T17:56:23.510Z,96729.31
2022-08-19T17:59:00.166Z,96732.50
2022-08-19T18:01:41.606Z,96745.06
2022-08-19T18:04:18.932Z,96758.16
2022-08-19T18:06:53.067Z,96767.63
2022-08-19T18:09:24.415Z,96773.06
2022-08-19T18:11:57.002Z,96776.84
2022-08-19T18:14:33.505Z,96762.91
2022-08-19T18:17:06.317Z,96771.84
2022-08-19T18:19:41.715Z,96786.63
2022-08-19T18:22:12.717Z,96790.91
2022-08-19T18:24:41.610Z,96788.56
2022-08-19T18:27:11.061Z,96788.78
2022-08-19T18:29:40.227Z,96792.03
2022-08-19T18:32:12.667Z,96801.00
2022-08-19T18:34:43.135Z,96807.22
2022-08-19T18:39:57.929Z,96800.28
2022-08-19T18:42:45.126Z,96791.34
2022-08-19T18:45:30.921Z,96797.06
2022-08-19T18:48:26.893Z,96807.09
2022-08-19T18:50:58.166Z,96808.34
2022-08-19T18:53:27.325Z,96810.78
2022-08-19T18:55:55.565Z,96801.38
2022-08-19T18:58:28.281Z,96802.34
2022-08-19T19:00:57.309Z,96802.50
2022-08-19T19:03:26.320Z,96808.75
2022-08-19T19:05:54.844Z,96826.22
2022-08-19T19:08:27.012Z,96826.03
2022-08-19T19:10:56.932Z,96815.88
2022-08-19T19:13:28.784Z,96801.50
2022-08-19T19:15:56.969Z,96790.44
2022-08-19T19:18:25.153Z,96780.53
2022-08-19T19:20:53.151Z,96786.25
2022-08-19T19:23:21.700Z,96781.56
2022-08-19T19:25:51.369Z,96784.31
2022-08-19T19:28:23.939Z,96782.69
2022-08-19T19:30:57.549Z,96783.16
2022-08-19T19:33:26.580Z,96774.06
2022-08-19T19:35:55.220Z,96781.59
2022-08-19T19:38:23.141Z,96788.53
2022-08-19T19:40:51.110Z,96786.03
2022-08-19T19:43:19.162Z,96791.53
2022-08-19T19:45:49.282Z,96794.88
2022-08-19T19:48:18.762Z,96793.53
2022-08-19T19:50:47.851Z,96793.56
2022-08-19T19:53:22.498Z,96801.13
2022-08-19T19:55:51.624Z,96794.72
2022-08-19T19:58:21.240Z,96792.16
2022-08-19T20:00:57.607Z,96790.09
2022-08-19T20:03:26.969Z,96782.88
2022-08-19T20:05:55.027Z,96783.59
2022-08-19T20:08:40.334Z,96802.16
2022-08-19T20:11:08.436Z,96811.28
2022-08-19T20:13:36.307Z,96814.19
2022-08-19T20:16:04.588Z,96818.50
2022-08-19T20:18:33.780Z,96816.06
2022-08-19T20:21:01.858Z,96823.81
2022-08-19T20:23:29.763Z,96831.16
2022-08-19T20:25:57.691Z,96841.97
2022-08-19T20:28:26.372Z,96831.97
2022-08-19T20:30:54.467Z,96836.97
2022-08-19T20:33:22.854Z,96830.75
2022-08-19T20:35:52.790Z,96817.31
2022-08-19T20:38:20.786Z,96813.25
2022-08-19T20:40:48.801Z,96812.97
2022-08-19T20:43:16.655Z,96804.28
2022-08-19T20:45:44.929Z,96801.16
2022-08-19T20:48:13.657Z,96806.25
2022-08-19T20:50:41.698Z,96809.41
2022-08-19T20:53:13.163Z,96807.38
2022-08-19T20:55:44.407Z,96795.19
2022-08-19T20:58:13.575Z,96800.03
2022-08-19T21:00:44.033Z,96800.78
2022-08-19T21:03:12.367Z,96800.97
2022-08-19T21:05:40.437Z,96787.75
2022-08-19T21:08:09.175Z,96789.69
2022-08-19T21:10:41.830Z,96798.38
2022-08-19T21:13:10.658Z,96792.28
2022-08-19T21:15:41.570Z,96789.66
2022-08-19T21:18:10.474Z,96793.41
2022-08-19T21:20:39.013Z,96791.78
2022-08-19T21:23:12.373Z,96784.41
2022-08-19T21:25:41.781Z,96796.63
2022-08-19T21:28:29.954Z,96798.16
2022-08-19T21:31:06.420Z,96788.75
2022-08-19T21:33:35.086Z,96782.25
2022-08-19T21:36:04.938Z,96791.38
2022-08-19T21:38:33.546Z,96805.91
2022-08-19T21:41:06.185Z,96820.22
2022-08-19T21:43:34.691Z,96805.53
2022-08-19T21:46:02.768Z,96804.03
2022-08-19T21:48:30.706Z,96794.09
2022-08-19T21:50:58.607Z,96785.94
2022-08-19T21:53:31.675Z,96797.59
2022-08-19T21:56:03.824Z,96798.41
2022-08-19T21:58:31.645Z,96805.00
2022-08-19T22:01:00.501Z,96810.59
2022-08-19T22:03:28.913Z,96810.91
2022-08-19T22:05:58.726Z,96799.91
2022-08-19T22:08:27.374Z,96798.19
2022-08-19T22:10:55.998Z,96788.59
2022-08-19T22:13:29.023Z,96791.13
2022-08-19T22:15:56.967Z,96803.47
2022-08-19T22:18:25.017Z,96808.13
2022-08-19T22:20:52.929Z,96816.88
2022-08-19T22:23:21.050Z,96822.91
2022-08-19T22:25:49.154Z,96824.13
2022-08-19T22:28:18.752Z,96799.94
2022-08-19T22:30:55.484Z,96803.22
2022-08-19T22:33:31.773Z,96802.22
2022-08-19T22:36:02.270Z,96792.63
2022-08-19T22:38:31.697Z,96795.56
2022-08-19T22:41:07.602Z,96808.91
2022-08-19T22:43:37.739Z,96801.50
2022-08-19T22:46:16.837Z,96801.50
2022-08-19T22:49:01.108Z,96795.44
2022-08-19T22:51:51.459Z,96796.53
2022-08-19T22:54:20.149Z,96792.00
2022-08-19T22:56:48.676Z,96805.66
2022-08-19T22:59:20.450Z,96797.28
2022-08-19T23:01:53.314Z,96799.00
2022-08-19T23:04:23.012Z,96802.03
2022-08-19T23:06:54.493Z,96802.03
2022-08-19T23:09:24.285Z,96782.22
2022-08-19T23:11:59.573Z,96769.88
2022-08-19T23:14:28.305Z,96768.22
2022-08-19T23:16:59.280Z,96762.34
2022-08-19T23:19:27.969Z,96770.31
2022-08-19T23:21:56.406Z,96763.00
2022-08-19T23:24:24.596Z,96773.28
2022-08-19T23:27:10.155Z,96773.88
2022-08-19T23:29:55.792Z,96771.63
2022-08-19T23:32:26.066Z,96784.59
2022-08-19T23:34:56.675Z,96782.16
2022-08-19T23:37:25.482Z,96779.75
2022-08-19T23:39:53.549Z,96775.47
2022-08-19T23:42:21.556Z,96775.91
2022-08-19T23:44:51.685Z,96773.78
2022-08-19T23:47:23.938Z,96784.59
2022-08-19T23:50:04.714Z,96782.41
2022-08-19T23:52:33.840Z,96781.69
2022-08-19T23:55:06.398Z,96786.75
2022-08-19T23:57:40.243Z,96786.22
